Time;durP1;ratioP1;P1;durP2;ratioP2;P2;SDS_P1;SDS_P2;PMS_P1;PMS_P2;Temp;Humidity;BMP_temperature;BMP_pressure;BME280_temperature;BME280_humidity;BME280_pressure;Samples;Min_cycle;Max_cycle;Signal;HPM_P1;HPM_P2
2022/12/27 00:02:03;;;;;;;14.15;9.73;;;;;;;2.09;81.65;99396.61;1749319;82;21040;-39
2022/12/27 00:04:30;;;;;;;15.68;9.78;;;;;;;2.06;81.71;99395.89;1749227;82;20981;-39
2022/12/27 00:06:57;;;;;;;12.93;9.63;;;;;;;2.09;81.60;99382.45;1749268;82;21240;-39
2022/12/27 00:09:24;;;;;;;13.88;10.18;;;;;;;2.09;81.71;99383.23;1749168;82;21016;-39
2022/12/27 00:11:53;;;;;;;13.80;9.55;;;;;;;2.07;81.86;99388.66;1749403;82;20894;-39
2022/12/27 00:14:19;;;;;;;14.45;9.40;;;;;;;2.05;81.88;99382.27;1749279;82;21021;-39
2022/12/27 00:16:47;;;;;;;13.48;9.35;;;;;;;2.06;81.96;99381.18;1749049;82;21095;-40
2022/12/27 00:19:14;;;;;;;14.70;9.40;;;;;;;2.09;81.96;99370.41;1746797;82;21150;-39
2022/12/27 00:21:40;;;;;;;13.90;9.83;;;;;;;2.10;82.06;99361.30;1746783;82;21017;-39
2022/12/27 00:24:09;;;;;;;14.00;10.00;;;;;;;2.08;82.12;99365.61;1746885;82;21559;-40
2022/12/27 00:26:38;;;;;;;13.93;9.08;;;;;;;2.03;82.24;99369.73;1746631;82;21039;-39
2022/12/27 00:29:05;;;;;;;14.40;9.73;;;;;;;2.04;82.26;99364.64;1746973;82;21056;-39
2022/12/27 00:31:32;;;;;;;12.60;9.40;;;;;;;2.08;82.38;99362.93;1746642;82;21250;-40
2022/12/27 00:34:03;;;;;;;13.28;9.43;;;;;;;2.10;82.46;99364.77;1746572;82;21099;-39
2022/12/27 00:36:30;;;;;;;15.90;10.30;;;;;;;2.10;82.42;99355.41;1746859;82;20941;-40
2022/12/27 00:38:57;;;;;;;14.23;9.60;;;;;;;2.07;82.54;99364.05;1746764;82;20937;-39
2022/12/27 00:41:24;;;;;;;13.45;9.60;;;;;;;2.08;82.57;99362.17;1746943;82;21487;-39
2022/12/27 00:43:51;;;;;;;14.93;9.80;;;;;;;2.11;82.38;99358.33;1746720;82;21129;-40
2022/12/27 00:46:19;;;;;;;13.40;9.70;;;;;;;2.14;82.38;99355.05;1746549;82;21028;-40
2022/12/27 00:48:45;;;;;;;15.65;10.15;;;;;;;2.10;82.52;99358.08;1746651;82;21043;-40
2022/12/27 00:51:18;;;;;;;13.10;9.60;;;;;;;2.05;82.73;99348.84;1731377;82;21587;-39
2022/12/27 00:53:44;;;;;;;13.15;9.78;;;;;;;2.01;83.06;99353.22;1763225;81;21568;-39
2022/12/27 00:56:16;;;;;;;11.93;9.28;;;;;;;2.05;83.02;99348.05;1761049;81;21230;-40
2022/12/27 00:58:43;;;;;;;14.47;9.93;;;;;;;2.07;83.15;99341.86;1731600;82;21028;-40
2022/12/27 01:01:14;;;;;;;13.78;10.10;;;;;;;2.03;83.40;99344.33;1763322;81;20988;-39
2022/12/27 01:03:41;;;;;;;13.50;9.38;;;;;;;1.98;83.66;99345.81;1731697;82;21036;-39
2022/12/27 01:06:15;;;;;;;13.00;9.43;;;;;;;1.97;83.78;99348.24;1763381;81;20977;-39
2022/12/27 01:08:43;;;;;;;14.70;9.75;;;;;;;2.02;83.83;99332.08;1761328;81;21196;-40
2022/12/27 01:11:10;;;;;;;12.75;9.95;;;;;;;2.03;83.93;99330.96;1763751;81;21004;-39
2022/12/27 01:13:38;;;;;;;15.90;10.18;;;;;;;2.00;84.13;99325.44;1763418;81;21015;-39
2022/12/27 01:16:14;;;;;;;14.03;9.40;;;;;;;1.99;84.27;99321.18;1761198;81;21252;-40
2022/12/27 01:18:40;;;;;;;12.78;8.90;;;;;;;2.03;84.31;99319.50;1729667;82;21044;-40
2022/12/27 01:21:09;;;;;;;13.83;10.08;;;;;;;2.08;84.30;99309.45;1752401;81;21645;-39
2022/12/27 01:23:36;;;;;;;12.35;8.80;;;;;;;2.11;84.31;99299.50;1752032;81;21047;-39
2022/12/27 01:26:06;;;;;;;11.38;8.95;;;;;;;2.09;84.50;99302.22;1752105;81;20992;-40
2022/12/27 01:28:34;;;;;;;11.50;8.80;;;;;;;2.11;84.46;99294.16;1752081;81;21084;-39
2022/12/27 01:31:06;;;;;;;11.05;8.60;;;;;;;2.17;84.37;99286.25;1752070;81;21506;-39
2022/12/27 01:33:35;;;;;;;12.23;8.85;;;;;;;2.18;84.37;99281.12;1752218;81;21283;-39
2022/12/27 01:36:19;;;;;;;12.93;9.43;;;;;;;2.15;84.44;99281.75;1752153;81;20933;-40
2022/12/27 01:38:47;;;;;;;11.75;8.85;;;;;;;2.13;84.65;99277.24;1752278;81;21514;-39
2022/12/27 01:44:48;;;;;;;11.68;8.65;;;;;;;2.21;84.61;99268.25;1752254;81;21036;-39
2022/12/27 01:47:27;;;;;;;10.72;8.20;;;;;;;2.21;84.72;99259.69;1749686;81;21574;-44
2022/12/27 01:50:08;;;;;;;11.73;8.40;;;;;;;2.06;84.87;99232.78;1752140;81;20973;-39
2022/12/27 01:52:58;;;;;;;10.80;7.55;;;;;;;2.26;84.73;99248.06;1752073;81;20925;-39
2022/12/27 01:55:47;;;;;;;11.05;8.28;;;;;;;2.32;84.49;99244.96;1752230;81;20980;-40
2022/12/27 01:58:35;;;;;;;11.08;8.10;;;;;;;2.36;84.50;99235.77;1752477;81;20992;-39
2022/12/27 02:01:04;;;;;;;11.10;8.70;;;;;;;2.36;84.59;99238.44;1752245;81;21578;-39
2022/12/27 02:03:46;;;;;;;10.30;8.13;;;;;;;2.36;84.62;99230.41;1752161;81;21525;-39
2022/12/27 02:06:13;;;;;;;10.80;7.95;;;;;;;2.34;84.57;99231.26;1752422;81;21565;-40
2022/12/27 02:09:00;;;;;;;10.88;8.53;;;;;;;2.41;84.35;99232.41;1749295;81;21606;-39
2022/12/27 02:14:24;;;;;;;13.08;9.20;;;;;;;2.43;84.25;99214.14;1752296;81;21147;-40
2022/12/27 02:16:51;;;;;;;10.70;8.50;;;;;;;2.40;84.43;99210.76;1752148;81;21012;-40
2022/12/27 02:19:41;;;;;;;10.98;8.10;;;;;;;2.39;84.47;99211.06;1760673;81;21046;-40
2022/12/27 02:24:01;;;;;;;11.00;8.53;;;;;;;2.45;84.23;99210.63;1731723;82;21582;-39
2022/12/27 02:25:43;;;;;;;11.57;8.98;;;;;;;2.47;84.20;99204.97;1735263;82;21027;-39
2022/12/27 02:28:44;;;;;;;12.82;9.70;;;;;;;2.43;84.44;99203.98;1738481;82;23131;-40
2022/12/27 02:31:15;;;;;;;10.88;8.55;;;;;;;2.40;84.50;99208.08;1703187;82;21027;-41
2022/12/27 02:33:45;;;;;;;11.97;9.60;;;;;;;2.45;84.42;99203.14;1739079;82;21008;-40
2022/12/27 02:36:23;;;;;;;12.75;9.30;;;;;;;2.46;84.37;99200.71;1733770;82;21020;-41
2022/12/27 02:38:52;;;;;;;13.90;10.10;;;;;;;2.43;84.57;99191.40;1758304;81;21051;-40
2022/12/27 02:53:04;;;;;;;13.77;9.90;;;;;;;2.45;84.95;99163.01;1731808;82;21099;-40
2022/12/27 02:59:07;;;;;;;14.75;10.40;;;;;;;2.49;84.98;99171.98;1731688;82;20968;-40
2022/12/27 03:05:16;;;;;;;14.35;10.50;;;;;;;2.50;85.20;99165.55;1731565;82;21044;-40
2022/12/27 03:08:12;;;;;;;12.60;10.00;;;;;;;2.45;85.36;99163.01;1731461;82;21032;-40
2022/12/27 03:16:57;;;;;;;13.75;10.48;;;;;;;2.48;85.47;99161.04;1731525;82;21066;-40
2022/12/27 03:25:29;;;;;;;15.43;11.53;;;;;;;2.56;85.53;99168.33;1756043;81;22041;-40
2022/12/27 03:34:03;;;;;;;14.90;11.18;;;;;;;2.55;85.55;99161.39;1756010;81;21490;-40
2022/12/27 03:39:26;;;;;;;17.92;12.30;;;;;;;2.61;85.63;99138.73;1716412;81;21217;-40
2022/12/27 03:44:53;;;;;;;12.70;10.03;;;;;;;2.60;85.86;99121.10;1756064;81;21056;-40
2022/12/27 03:47:31;;;;;;;14.80;10.85;;;;;;;2.67;85.76;99120.62;1708332;81;20963;-40
2022/12/27 03:50:03;;;;;;;15.72;11.63;;;;;;;2.71;85.77;99122.94;1755636;81;21021;-40
2022/12/27 03:52:40;;;;;;;14.70;11.40;;;;;;;2.68;85.99;99118.98;1755924;81;23122;-40
2022/12/27 03:55:07;;;;;;;15.63;11.20;;;;;;;2.68;86.19;99102.92;1756083;81;21613;-40
2022/12/27 03:57:35;;;;;;;15.95;11.57;;;;;;;2.71;86.00;99098.27;1756054;81;21059;-40
2022/12/27 04:00:03;;;;;;;18.77;12.90;;;;;;;2.78;85.87;99101.28;1755999;81;21027;-40
2022/12/27 04:02:32;;;;;;;19.15;13.22;;;;;;;2.78;86.08;99110.65;1754695;81;21048;-40
2022/12/27 04:05:00;;;;;;;17.70;12.53;;;;;;;2.78;86.19;99111.20;1756025;81;22086;-41
2022/12/27 04:07:27;;;;;;;15.25;12.15;;;;;;;2.82;86.07;99114.27;1755748;81;21514;-40
2022/12/27 04:34:44;;;;;;;19.10;14.00;;;;;;;2.99;85.37;99078.14;1760804;81;20995;-40
2022/12/27 04:37:17;;;;;;;20.15;14.43;;;;;;;3.02;85.36;99082.06;1760869;81;20932;-40
2022/12/27 04:56:19;;;;;;;16.62;13.38;;;;;;;3.13;85.85;99063.79;1760689;81;21080;-40
2022/12/27 05:04:17;;;;;;;21.33;15.83;;;;;;;3.24;85.51;99075.20;1760799;81;20936;-40
2022/12/27 05:06:43;;;;;;;19.48;14.73;;;;;;;3.22;85.63;99074.72;1760826;81;21537;-40
2022/12/27 05:14:40;;;;;;;21.00;15.38;;;;;;;3.39;85.30;99079.25;1760877;81;20992;-40
2022/12/27 05:17:07;;;;;;;20.97;15.60;;;;;;;3.40;85.40;99082.17;1760900;81;21036;-40
2022/12/27 05:19:33;;;;;;;16.97;13.53;;;;;;;3.39;85.40;99082.72;1759627;81;21635;-41
2022/12/27 05:27:31;;;;;;;21.40;16.45;;;;;;;3.58;85.22;99074.34;1752557;81;21543;-40
2022/12/27 05:29:58;;;;;;;21.30;16.42;;;;;;;3.58;85.36;99074.34;1758347;81;21288;-40
2022/12/27 05:32:26;;;;;;;21.97;15.40;;;;;;;3.58;85.34;99078.36;1758133;81;20969;-40
2022/12/27 05:34:52;;;;;;;20.35;14.68;;;;;;;3.62;85.27;99079.84;1758373;81;20992;-40
2022/12/27 05:37:19;;;;;;;22.95;15.90;;;;;;;3.66;85.16;99075.41;1758104;81;23086;-40
2022/12/27 10:13:21;;;;;;;36.65;23.90;;;;;;;6.25;100.00;98988.71;1755550;80;21906;-39
2022/12/27 10:16:08;;;;;;;37.63;22.60;;;;;;;6.42;100.00;98989.81;1735557;81;21020;-39
2022/12/27 10:18:49;;;;;;;35.92;22.02;;;;;;;6.47;100.00;98986.33;1762519;81;21092;-39
2022/12/27 10:21:24;;;;;;;38.65;22.62;;;;;;;6.52;100.00;98991.47;1789509;80;20957;-40
2022/12/27 10:24:18;;;;;;;37.73;22.82;;;;;;;6.60;100.00;98988.41;1790161;80;20940;-40
2022/12/27 10:26:46;;;;;;;36.88;23.42;;;;;;;6.67;100.00;98994.02;1790124;80;21083;-39
2022/12/27 10:29:24;;;;;;;41.40;23.75;;;;;;;6.74;100.00;98988.02;1790162;80;20967;-39
2022/12/27 10:31:50;;;;;;;39.10;23.35;;;;;;;6.75;100.00;98992.29;1789849;80;21236;-39
2022/12/27 10:34:23;;;;;;;39.75;23.32;;;;;;;6.79;100.00;98985.08;1790330;80;20933;-39
2022/12/27 10:36:46;;;;;;;41.13;24.13;;;;;;;6.85;100.00;98981.81;1790473;80;20996;-40
2022/12/27 10:39:20;;;;;;;46.80;25.08;;;;;;;6.88;100.00;98981.67;1790326;80;21036;-40
2022/12/27 10:42:05;;;;;;;44.27;24.05;;;;;;;6.91;100.00;98979.66;1784317;80;21133;-40
2022/12/27 10:44:32;;;;;;;39.58;23.67;;;;;;;6.98;100.00;98983.31;1790078;80;21308;-39
2022/12/27 10:46:59;;;;;;;43.10;24.72;;;;;;;7.09;99.27;98976.86;1790171;80;21509;-40
2022/12/27 10:49:29;;;;;;;42.10;25.77;;;;;;;7.16;98.39;98973.02;1790204;80;20929;-40
2022/12/27 10:52:09;;;;;;;47.10;26.37;;;;;;;7.17;98.05;98969.17;1790472;80;21533;-40
2022/12/27 10:54:52;;;;;;;42.38;24.85;;;;;;;7.21;97.48;98962.55;1790074;80;21489;-40
2022/12/27 10:57:32;;;;;;;43.35;25.12;;;;;;;7.26;96.63;98960.35;1790102;80;21306;-40
2022/12/27 11:00:21;;;;;;;42.62;25.55;;;;;;;7.31;95.63;98952.00;1790114;80;21016;-40
2022/12/27 11:02:53;;;;;;;;;;;;;;;7.31;95.01;98949.31;1792744;80;21003;-40
2022/12/27 11:05:30;;;;;;;43.52;25.62;;;;;;;7.28;94.68;98955.41;1790259;80;20196;-40
2022/12/27 11:07:57;;;;;;;42.50;24.82;;;;;;;7.23;94.16;98959.70;1789962;80;20981;-40
2022/12/27 11:10:27;;;;;;;39.53;24.63;;;;;;;7.30;93.26;98953.72;1790149;80;21240;-40
2022/12/27 11:13:05;;;;;;;39.75;24.40;;;;;;;7.33;92.65;98955.72;1790135;79;21502;-40
2022/12/27 11:15:41;;;;;;;35.43;21.25;;;;;;;7.31;92.03;98965.48;1789766;80;20957;-40
2022/12/27 11:18:17;;;;;;;33.60;20.12;;;;;;;7.28;90.89;98970.23;1790135;80;20932;-40
2022/12/27 11:20:55;;;;;;;32.88;20.72;;;;;;;7.24;90.09;98961.84;1789768;80;21534;-40
2022/12/27 11:23:23;;;;;;;34.55;21.37;;;;;;;7.17;89.53;98966.47;1790215;80;21052;-40
2022/12/27 11:25:58;;;;;;;31.37;19.23;;;;;;;7.07;89.56;98956.79;1789798;80;20965;-40
2022/12/27 11:28:49;;;;;;;31.50;19.77;;;;;;;6.98;89.83;98971.19;1790165;80;20964;-40
2022/12/27 11:31:18;;;;;;;30.17;20.17;;;;;;;6.91;90.01;98965.63;1789756;80;21063;-39
2022/12/27 11:33:53;;;;;;;31.95;20.10;;;;;;;6.92;90.07;98966.41;1790360;80;21033;-40
2022/12/27 11:36:39;;;;;;;35.43;21.95;;;;;;;6.92;90.27;98961.02;1790137;80;21205;-40
2022/12/27 11:39:06;;;;;;;34.27;20.90;;;;;;;6.88;90.43;98962.81;1790263;80;20934;-40
2022/12/27 11:41:51;;;;;;;35.23;21.45;;;;;;;6.84;90.63;98950.59;1789968;80;20968;-40
2022/12/27 11:44:31;;;;;;;36.77;21.95;;;;;;;6.90;90.57;98946.53;1790209;80;20886;-40
2022/12/27 11:47:15;;;;;;;35.17;21.95;;;;;;;6.96;90.61;98935.73;1789999;80;20984;-40
2022/12/27 11:49:51;;;;;;;44.35;25.02;;;;;;;6.99;90.67;98940.98;1789532;80;23176;-40
2022/12/27 11:52:35;;;;;;;38.78;22.07;;;;;;;6.99;90.62;98943.11;1789690;80;21549;-40
2022/12/27 11:55:17;;;;;;;41.48;23.15;;;;;;;7.01;90.19;98945.47;1789950;80;21017;-40
2022/12/27 11:57:55;;;;;;;38.67;23.38;;;;;;;7.03;90.10;98950.50;1789757;80;21004;-40
2022/12/27 12:00:23;;;;;;;43.38;25.37;;;;;;;7.03;90.02;98954.54;1789806;80;21591;-40
2022/12/27 12:03:10;;;;;;;37.38;22.25;;;;;;;6.97;89.98;98963.47;1789779;80;21117;-40
2022/12/27 12:05:54;;;;;;;32.90;21.40;;;;;;;6.93;89.94;98963.91;1789750;80;21024;-40
2022/12/27 12:08:51;;;;;;;38.05;23.62;;;;;;;6.95;89.88;98961.67;1789908;80;20913;-40
2022/12/27 12:11:35;;;;;;;39.85;23.22;;;;;;;6.96;89.68;98959.20;1788583;80;20940;-40
2022/12/27 12:14:08;;;;;;;36.15;22.48;;;;;;;6.92;89.90;98962.37;1789796;80;21083;-40
2022/12/27 12:16:57;;;;;;;34.25;21.20;;;;;;;6.93;89.82;98953.12;1789823;80;21127;-40
2022/12/27 12:19:57;;;;;;;33.92;21.37;;;;;;;7.00;89.70;98949.30;1789772;80;21494;-40
2022/12/27 12:22:36;;;;;;;37.13;22.58;;;;;;;7.03;89.51;98960.72;1789830;80;20968;-40
2022/12/27 12:25:31;;;;;;;35.48;22.42;;;;;;;6.99;89.52;98966.58;1789834;80;20945;-40
2022/12/27 12:28:29;;;;;;;35.35;21.90;;;;;;;7.02;89.27;98965.13;1788616;80;21048;-40
2022/12/27 12:31:28;;;;;;;40.35;22.13;;;;;;;7.05;88.83;98971.95;1774068;80;21094;-40
2022/12/27 12:34:22;;;;;;;;;;;;;;;7.06;88.81;98965.44;1791916;80;20985;-40
2022/12/27 12:37:07;;;;;;;32.83;20.37;;;;;;;7.01;88.94;98958.95;1765549;80;20120;-40
2022/12/27 12:39:54;;;;;;;29.45;18.57;;;;;;;6.91;89.28;98958.10;1789867;80;21040;-40
2022/12/27 12:42:40;;;;;;;32.45;20.60;;;;;;;6.96;88.92;98955.16;1789740;80;21063;-40
2022/12/27 12:45:43;;;;;;;32.55;20.45;;;;;;;6.95;88.79;98958.41;1769456;80;21302;-40
2022/12/27 12:48:43;;;;;;;31.25;18.73;;;;;;;6.91;89.09;98962.14;1789727;80;20999;-40
2022/12/27 12:51:53;;;;;;;30.10;18.48;;;;;;;6.86;89.24;98960.48;1789991;80;20933;-40
2022/12/27 12:54:34;;;;;;;31.65;18.55;;;;;;;6.89;89.31;98959.00;1790031;80;20976;-40
2022/12/27 12:57:38;;;;;;;32.67;19.82;;;;;;;6.89;89.38;98973.81;1790026;80;21589;-40
2022/12/27 13:00:43;;;;;;;27.60;17.45;;;;;;;6.85;89.64;98964.30;1789980;80;21239;-40
2022/12/27 13:03:35;;;;;;;26.15;17.48;;;;;;;6.90;89.45;98971.34;1789810;80;20988;-40
2022/12/27 13:06:35;;;;;;;26.40;17.95;;;;;;;6.93;89.18;98967.95;1790087;80;20992;-40
2022/12/27 13:09:16;;;;;;;28.38;18.23;;;;;;;6.86;89.32;98967.78;1788612;80;21510;-40
2022/12/27 13:12:22;;;;;;;28.62;17.37;;;;;;;6.86;89.32;98967.78;1789832;80;21594;-40
2022/12/27 13:15:07;;;;;;;29.07;18.27;;;;;;;6.86;89.45;98975.86;1789806;80;21147;-40
2022/12/27 13:18:26;;;;;;;27.75;17.20;;;;;;;6.91;89.14;98979.66;1789227;80;21042;-40
2022/12/27 13:21:17;;;;;;;28.17;17.73;;;;;;;6.90;89.00;98976.73;1789799;80;21024;-40
2022/12/27 13:24:07;;;;;;;25.25;16.80;;;;;;;6.86;89.23;98971.26;1771236;80;21012;-40
2022/12/27 13:27:18;;;;;;;22.67;15.18;;;;;;;6.85;89.10;98972.37;1789984;80;20921;-40
2022/12/27 13:30:21;;;;;;;28.17;16.23;;;;;;;6.90;88.69;98976.73;1761721;80;21148;-40
2022/12/27 13:33:27;;;;;;;24.60;16.23;;;;;;;6.89;88.68;98981.90;1789701;80;21027;-40
2022/12/27 13:36:19;;;;;;;26.48;16.25;;;;;;;6.82;88.75;98981.72;1789445;80;21353;-39
2022/12/27 13:39:04;;;;;;;23.98;16.40;;;;;;;6.80;88.74;98985.31;1789773;80;21008;-40
2022/12/27 13:41:55;;;;;;;28.60;17.60;;;;;;;6.84;88.60;98982.14;1789326;80;21549;-40
2022/12/27 13:45:09;;;;;;;28.60;18.25;;;;;;;6.84;88.77;98983.49;1789723;80;21209;-40
2022/12/27 13:48:18;;;;;;;25.05;17.32;;;;;;;6.79;88.96;98981.83;1789558;80;21548;-40
2022/12/27 13:51:24;;;;;;;26.02;17.77;;;;;;;6.78;88.92;98986.99;1789747;80;21011;-40
2022/12/27 13:54:31;;;;;;;29.75;19.42;;;;;;;6.81;88.74;98986.88;1789891;80;20948;-40
2022/12/27 13:57:30;;;;;;;31.25;20.30;;;;;;;6.78;88.89;98988.34;1790027;80;21013;-40
2022/12/27 14:00:03;;;;;;;24.07;16.77;;;;;;;6.74;88.98;98983.98;1788984;80;22529;-40
2022/12/27 14:02:46;;;;;;;22.75;14.93;;;;;;;6.74;88.94;98983.42;1784257;80;20929;-40
2022/12/27 14:05:47;;;;;;;22.55;14.70;;;;;;;6.78;88.79;98992.38;1790032;80;20952;-40
2022/12/27 14:08:50;;;;;;;19.67;13.55;;;;;;;6.80;88.80;98996.09;1789677;80;20977;-40
2022/12/27 14:11:56;;;;;;;16.27;11.10;;;;;;;6.73;88.63;98987.23;1789782;80;21083;-40
2022/12/27 14:14:24;;;;;;;15.55;10.40;;;;;;;6.74;88.40;99001.48;1781993;80;21237;-40
2022/12/27 14:17:11;;;;;;;13.80;9.35;;;;;;;6.76;87.78;99003.29;1782150;80;20980;-40
2022/12/27 14:20:02;;;;;;;12.23;8.65;;;;;;;6.75;87.61;99004.41;1781806;80;21020;-40
2022/12/27 14:23:16;;;;;;;10.25;7.85;;;;;;;6.73;86.88;99001.29;1781907;80;21028;-40
2022/12/27 14:25:51;;;;;;;11.00;6.97;;;;;;;6.74;86.32;99004.18;1666319;86;21111;-40
2022/12/27 14:28:32;;;;;;;9.15;6.75;;;;;;;6.70;85.51;99008.69;1666550;86;21921;-40
2022/12/27 14:31:40;;;;;;;6.67;5.17;;;;;;;6.62;85.07;99010.41;1713924;82;21028;-40
2022/12/27 14:34:36;;;;;;;5.78;3.80;;;;;;;6.62;84.59;99009.63;1742591;82;20972;-40
2022/12/27 14:37:42;;;;;;;5.17;3.42;;;;;;;6.59;82.87;99023.75;1728283;81;21055;-40
2022/12/27 14:40:34;;;;;;;3.70;2.83;;;;;;;6.49;81.71;99029.84;1782045;80;21008;-40
2022/12/27 14:43:40;;;;;;;3.08;2.40;;;;;;;6.40;81.30;99031.09;1739284;80;21370;-40
2022/12/27 14:46:39;;;;;;;2.47;1.87;;;;;;;6.37;81.05;99027.74;1782183;80;21008;-40
2022/12/27 14:49:26;;;;;;;2.12;1.80;;;;;;;6.34;80.23;99052.08;1782554;80;20965;-42
2022/12/27 14:52:11;;;;;;;1.60;1.37;;;;;;;6.27;80.56;99063.98;1780868;80;21007;-42
2022/12/27 14:54:58;;;;;;;1.60;1.45;;;;;;;6.24;80.04;99061.19;1759187;80;21032;-40
2022/12/27 14:57:49;;;;;;;1.50;1.20;;;;;;;6.20;79.15;99063.75;1781925;80;21134;-40
2022/12/27 15:00:22;;;;;;;1.52;1.30;;;;;;;6.12;78.29;99076.77;1781825;80;20985;-40
2022/12/27 15:03:18;;;;;;;1.15;0.93;;;;;;;6.02;77.65;99077.22;1782229;80;21412;-40
2022/12/27 15:06:17;;;;;;;1.27;0.90;;;;;;;5.96;76.68;99078.55;1781835;80;21075;-40
2022/12/27 15:08:55;;;;;;;1.32;1.00;;;;;;;5.91;76.46;99080.11;1733259;80;21044;-40
2022/12/27 15:11:55;;;;;;;1.32;1.00;;;;;;;5.84;76.97;99086.03;1782190;80;21490;-40
2022/12/27 15:14:30;;;;;;;2.37;1.30;;;;;;;5.77;77.23;99082.31;1782102;80;21055;-40
2022/12/27 15:17:10;;;;;;;1.52;1.10;;;;;;;5.77;77.64;99089.03;1781907;80;21036;-40
2022/12/27 15:19:59;;;;;;;1.57;1.22;;;;;;;5.75;77.53;99093.98;1781630;80;21416;-40
2022/12/27 15:22:47;;;;;;;1.62;1.20;;;;;;;5.70;78.02;99116.50;1782108;80;21008;-40
2022/12/27 15:25:43;;;;;;;1.52;1.17;;;;;;;5.61;78.03;99116.59;1728146;80;21530;-40
2022/12/27 15:28:26;;;;;;;1.12;1.00;;;;;;;5.59;78.29;99129.57;1782276;80;21043;-40
2022/12/27 15:31:36;;;;;;;1.37;1.10;;;;;;;5.60;78.38;99136.53;1736719;80;21000;-40
2022/12/27 15:34:44;;;;;;;1.00;0.90;;;;;;;5.56;77.92;99150.97;1782493;80;21791;-40
2022/12/27 15:38:00;;;;;;;1.37;1.02;;;;;;;5.38;76.71;99146.28;1782136;80;21024;-40
2022/12/27 15:40:35;;;;;;;2.02;1.15;;;;;;;5.28;77.04;99144.00;1781975;80;23116;-40
2022/12/27 15:43:34;;;;;;;1.10;0.80;;;;;;;5.14;77.02;99164.43;1782065;80;20929;-40
2022/12/27 15:46:35;;;;;;;1.95;1.30;;;;;;;5.09;77.45;99158.46;1781943;80;21021;-40
2022/12/27 15:49:34;;;;;;;1.50;1.10;;;;;;;5.00;77.72;99172.52;1782025;80;21039;-40
2022/12/27 15:52:22;;;;;;;1.50;1.10;;;;;;;4.92;77.60;99178.75;1734681;80;21017;-40
2022/12/27 15:55:03;;;;;;;2.10;1.40;;;;;;;4.87;77.77;99182.96;1752429;80;21253;-40
2022/12/27 15:58:10;;;;;;;1.55;1.30;;;;;;;4.78;77.86;99177.09;1781941;80;21483;-40
2022/12/27 16:00:39;;;;;;;2.50;1.30;;;;;;;4.71;77.74;99178.70;1781983;80;20960;-40
2022/12/27 16:03:34;;;;;;;1.40;1.30;;;;;;;4.64;77.57;99201.27;1782627;80;20933;-40
2022/12/27 16:06:03;;;;;;;2.30;1.40;;;;;;;4.63;77.50;99199.13;1782126;80;21044;-40
2022/12/27 16:08:39;;;;;;;1.60;1.00;;;;;;;4.56;77.70;99204.20;1782394;80;21084;-40
2022/12/27 16:11:09;;;;;;;1.02;0.85;;;;;;;4.51;77.59;99205.73;1782167;80;21087;-40
2022/12/27 16:13:43;;;;;;;1.47;0.90;;;;;;;4.52;77.11;99218.60;1786843;80;20963;-40
2022/12/27 16:16:33;;;;;;;1.20;0.90;;;;;;;4.51;77.00;99215.67;1789610;80;21040;-40
2022/12/27 16:19:11;;;;;;;2.33;1.00;;;;;;;4.47;76.68;99222.25;1766247;80;21540;-40
2022/12/27 16:21:44;;;;;;;1.05;0.80;;;;;;;4.36;76.62;99230.41;1724865;83;23208;-40
2022/12/27 16:24:19;;;;;;;1.32;0.90;;;;;;;4.28;76.56;99238.74;1737046;82;21073;-40
2022/12/27 16:26:54;;;;;;;4.35;1.27;;;;;;;4.26;76.60;99248.23;1736749;82;21021;-40
2022/12/27 16:29:26;;;;;;;1.65;0.90;;;;;;;4.24;75.83;99249.89;1738618;82;21482;-40
2022/12/27 16:32:14;;;;;;;1.70;1.02;;;;;;;4.22;76.08;99265.50;1739183;82;21099;-40
2022/12/27 16:34:42;;;;;;;3.05;1.02;;;;;;;4.19;76.21;99280.12;1739191;82;21132;-40
2022/12/27 16:37:35;;;;;;;1.25;0.80;;;;;;;4.13;76.14;99284.07;1738936;82;21027;-40
2022/12/27 16:40:25;;;;;;;4.12;1.00;;;;;;;4.13;76.19;99279.49;1739042;82;21023;-40
2022/12/27 16:43:15;;;;;;;2.67;1.10;;;;;;;4.13;75.81;99285.41;1693011;82;21056;-39
2022/12/27 16:45:48;;;;;;;2.75;1.02;;;;;;;4.06;76.14;99291.28;1737937;82;21020;-40
2022/12/27 16:48:43;;;;;;;2.15;0.95;;;;;;;3.99;76.29;99294.19;1739161;82;21252;-40
2022/12/27 16:51:42;;;;;;;3.62;1.35;;;;;;;4.00;76.44;99293.09;1728373;82;21538;-40
2022/12/27 16:54:42;;;;;;;3.20;1.00;;;;;;;4.04;76.57;99304.76;1739010;82;20989;-40
2022/12/27 16:57:26;;;;;;;2.98;1.37;;;;;;;3.97;76.50;99296.41;1739074;82;21086;-40
2022/12/27 17:00:17;;;;;;;4.90;1.30;;;;;;;3.89;76.88;99316.20;1739197;82;21064;-40
2022/12/27 17:02:46;;;;;;;5.05;0.98;;;;;;;3.84;76.96;99324.95;1739302;82;21089;-40
2022/12/27 17:05:24;;;;;;;5.65;1.57;;;;;;;3.85;76.83;99323.86;1739084;82;21536;-40
2022/12/27 17:07:58;;;;;;;5.12;1.30;;;;;;;3.89;76.70;99326.94;1736494;82;21000;-40
2022/12/27 17:10:33;;;;;;;5.95;1.67;;;;;;;3.89;76.63;99318.89;1739224;82;21579;-40
2022/12/27 17:13:35;;;;;;;3.08;1.40;;;;;;;3.86;76.57;99319.53;1738507;82;21016;-40
2022/12/27 17:16:18;;;;;;;4.00;1.30;;;;;;;3.79;75.85;99324.56;1733804;82;21259;-40
2022/12/27 17:19:03;;;;;;;2.92;1.42;;;;;;;3.75;76.23;99333.00;1733570;82;20980;-40
2022/12/27 17:21:36;;;;;;;3.42;1.50;;;;;;;3.77;76.37;99330.81;1733493;82;20956;-40
2022/12/27 17:24:09;;;;;;;6.50;2.05;;;;;;;3.70;76.08;99335.84;1733818;82;20992;-40
2022/12/27 17:27:12;;;;;;;5.70;2.22;;;;;;;3.64;76.17;99336.30;1733546;82;21000;-40
2022/12/27 17:30:21;;;;;;;5.12;1.70;;;;;;;3.58;76.22;99343.72;1733686;82;21159;-40
2022/12/27 17:33:17;;;;;;;5.17;1.67;;;;;;;3.60;76.45;99350.88;1733474;82;21032;-40
2022/12/27 17:36:11;;;;;;;3.33;1.47;;;;;;;3.58;76.54;99356.33;1733287;82;21000;-40
2022/12/27 17:39:11;;;;;;;6.17;1.95;;;;;;;3.47;76.50;99365.22;1733434;82;22057;-40
2022/12/27 17:44:58;;;;;;;4.53;1.80;;;;;;;3.33;76.51;99369.36;1733728;82;21194;-40
2022/12/27 17:47:36;;;;;;;5.65;1.67;;;;;;;3.26;76.50;99374.92;1726300;82;21036;-40
2022/12/27 17:50:05;;;;;;;5.35;1.92;;;;;;;3.22;76.66;99373.42;1733550;82;21517;-40
2022/12/27 17:58:11;;;;;;;6.90;2.45;;;;;;;3.09;76.49;99379.68;1721935;82;21259;-40
2022/12/27 18:00:54;;;;;;;7.05;2.47;;;;;;;3.11;76.59;99376.67;1733505;82;21076;-40
2022/12/27 18:03:21;;;;;;;6.03;2.17;;;;;;;3.08;76.57;99378.09;1733751;82;20983;-40
2022/12/27 18:05:48;;;;;;;6.17;2.15;;;;;;;3.00;76.59;99377.52;1733389;82;21090;-40
2022/12/27 18:08:27;;;;;;;7.78;2.27;;;;;;;2.91;76.68;99380.13;1733617;82;21079;-40
2022/12/27 18:10:56;;;;;;;8.35;2.00;;;;;;;2.87;76.73;99387.75;1733659;82;21017;-40
2022/12/27 18:13:25;;;;;;;8.55;2.75;;;;;;;2.87;76.69;99386.41;1733836;82;20980;-40
2022/12/27 18:15:52;;;;;;;8.83;2.10;;;;;;;2.88;76.73;99388.00;1736348;82;20984;-40
2022/12/27 20:48:40;;;;;;;5.20;2.10;;;;;;;3.50;72.02;99526.73;1823266;76;22672;-40
2022/12/27 20:51:08;;;;;;;9.13;1.80;;;;;;;3.57;71.00;99531.11;1794315;79;21017;-40
2022/12/27 20:53:34;;;;;;;9.30;2.58;;;;;;;3.52;70.85;99529.11;1792301;80;21539;-40
2022/12/27 20:56:01;;;;;;;8.28;2.20;;;;;;;3.47;70.89;99537.53;1792478;80;21010;-40
2022/12/27 20:58:30;;;;;;;7.42;2.12;;;;;;;3.44;70.93;99531.98;1792344;80;21003;-40
2022/12/27 21:00:57;;;;;;;8.75;2.30;;;;;;;3.39;70.48;99537.47;1786379;80;20966;-40
2022/12/27 21:03:24;;;;;;;7.10;2.02;;;;;;;3.31;70.77;99539.56;1792091;80;20927;-40
2022/12/27 21:05:51;;;;;;;6.25;2.27;;;;;;;3.28;71.09;99538.84;1792199;79;21992;-40
2022/12/27 21:08:18;;;;;;;5.50;2.37;;;;;;;3.31;71.38;99563.67;1791961;80;21283;-40
2022/12/27 21:10:45;;;;;;;5.40;2.55;;;;;;;3.32;71.37;99560.70;1792052;80;20961;-40
2022/12/27 21:13:11;;;;;;;7.17;2.35;;;;;;;3.28;71.68;99561.62;1792094;79;21046;-40
2022/12/27 21:15:38;;;;;;;13.43;2.60;;;;;;;3.27;71.92;99560.82;1792081;80;21093;-39
2022/12/27 21:18:05;;;;;;;9.80;2.52;;;;;;;3.23;71.96;99563.08;1792158;79;21364;-40
2022/12/27 21:20:32;;;;;;;8.03;2.77;;;;;;;3.19;72.31;99566.13;1792070;80;21308;-40
2022/12/27 21:22:58;;;;;;;8.65;2.55;;;;;;;3.18;72.51;99567.22;1792223;80;21014;-40
2022/12/27 21:25:25;;;;;;;10.13;2.85;;;;;;;3.23;72.61;99557.72;1791956;79;21460;-40
2022/12/27 21:27:52;;;;;;;9.20;2.80;;;;;;;3.18;72.75;99566.68;1792124;79;21050;-40
2022/12/27 21:30:19;;;;;;;8.20;2.67;;;;;;;3.14;72.89;99570.27;1792045;79;21132;-40
2022/12/27 21:32:46;;;;;;;10.70;3.12;;;;;;;3.09;73.10;99567.17;1792196;79;21566;-40